sensor_id;sensor_type;location;lat;lon;timestamp;pressure;altitude;pressure_sealevel;temperature;humidity
34979;BME280;21185;50.978;13.720;2023-07-20T00:02:51;97883.78;;;20.24;59.76
34979;BME280;21185;50.978;13.720;2023-07-20T00:07:53;97885.06;;;20.22;60.05
34979;BME280;21185;50.978;13.720;2023-07-20T00:12:55;97880.25;;;20.19;60.42
34979;BME280;21185;50.978;13.720;2023-07-20T00:17:57;97884.72;;;20.18;60.38
34979;BME280;21185;50.978;13.720;2023-07-20T00:22:59;97886.31;;;20.19;59.90
34979;BME280;21185;50.978;13.720;2023-07-20T00:28:01;97891.25;;;20.16;60.22
34979;BME280;21185;50.978;13.720;2023-07-20T00:33:03;97888.84;;;20.14;60.15
34979;BME280;21185;50.978;13.720;2023-07-20T00:38:05;97879.59;;;20.12;60.46
34979;BME280;21185;50.978;13.720;2023-07-20T00:43:07;97893.69;;;20.05;60.59
34979;BME280;21185;50.978;13.720;2023-07-20T00:48:09;97889.34;;;19.99;60.83
34979;BME280;21185;50.978;13.720;2023-07-20T00:53:11;97898.50;;;19.97;60.53
34979;BME280;21185;50.978;13.720;2023-07-20T00:58:13;97901.38;;;19.95;60.35
34979;BME280;21185;50.978;13.720;2023-07-20T01:03:15;97891.41;;;19.97;60.15
34979;BME280;21185;50.978;13.720;2023-07-20T01:08:38;97898.28;;;19.98;59.70
34979;BME280;21185;50.978;13.720;2023-07-20T01:13:41;97881.44;;;19.99;59.46
34979;BME280;21185;50.978;13.720;2023-07-20T01:18:44;97891.97;;;19.99;59.54
34979;BME280;21185;50.978;13.720;2023-07-20T01:28:52;97897.25;;;19.99;59.52
34979;BME280;21185;50.978;13.720;2023-07-20T01:34:02;97893.25;;;19.97;59.29
34979;BME280;21185;50.978;13.720;2023-07-20T01:39:10;97887.06;;;19.91;59.41
34979;BME280;21185;50.978;13.720;2023-07-20T01:44:12;97889.34;;;19.88;59.37
34979;BME280;21185;50.978;13.720;2023-07-20T01:49:14;97889.81;;;19.85;59.56
34979;BME280;21185;50.978;13.720;2023-07-20T01:54:18;97900.81;;;19.82;59.40
34979;BME280;21185;50.978;13.720;2023-07-20T01:59:20;97896.22;;;19.77;59.62
34979;BME280;21185;50.978;13.720;2023-07-20T02:04:22;97884.78;;;19.71;59.64
34979;BME280;21185;50.978;13.720;2023-07-20T02:09:23;97888.09;;;19.67;60.12
34979;BME280;21185;50.978;13.720;2023-07-20T02:14:25;97889.03;;;19.61;60.06
34979;BME280;21185;50.978;13.720;2023-07-20T02:19:28;97900.00;;;19.58;60.03
34979;BME280;21185;50.978;13.720;2023-07-20T02:24:29;97909.38;;;19.54;60.06
34979;BME280;21185;50.978;13.720;2023-07-20T02:29:31;97903.75;;;19.50;60.26
34979;BME280;21185;50.978;13.720;2023-07-20T02:34:36;97903.97;;;19.49;59.76
34979;BME280;21185;50.978;13.720;2023-07-20T02:39:39;97897.69;;;19.50;59.75
34979;BME280;21185;50.978;13.720;2023-07-20T02:44:40;97905.59;;;19.50;59.41
34979;BME280;21185;50.978;13.720;2023-07-20T02:49:42;97902.94;;;19.50;59.27
34979;BME280;21185;50.978;13.720;2023-07-20T02:54:45;97916.34;;;19.48;59.30
34979;BME280;21185;50.978;13.720;2023-07-20T02:59:47;97919.19;;;19.47;59.00
34979;BME280;21185;50.978;13.720;2023-07-20T03:04:48;97923.31;;;19.42;59.72
34979;BME280;21185;50.978;13.720;2023-07-20T03:09:50;97920.91;;;19.41;59.73
34979;BME280;21185;50.978;13.720;2023-07-20T03:14:52;97924.00;;;19.38;59.41
34979;BME280;21185;50.978;13.720;2023-07-20T03:19:55;97924.44;;;19.35;59.77
34979;BME280;21185;50.978;13.720;2023-07-20T03:24:57;97929.94;;;19.33;59.53
34979;BME280;21185;50.978;13.720;2023-07-20T03:29:59;97935.19;;;19.33;59.51
34979;BME280;21185;50.978;13.720;2023-07-20T03:35:01;97937.25;;;19.31;59.41
34979;BME280;21185;50.978;13.720;2023-07-20T03:40:03;97926.72;;;19.31;59.98
34979;BME280;21185;50.978;13.720;2023-07-20T03:45:07;97929.34;;;19.31;59.89
34979;BME280;21185;50.978;13.720;2023-07-20T03:50:09;97924.53;;;19.28;60.18
34979;BME280;21185;50.978;13.720;2023-07-20T03:55:12;97941.34;;;19.27;60.53
34979;BME280;21185;50.978;13.720;2023-07-20T04:00:13;97933.47;;;19.27;60.76
34979;BME280;21185;50.978;13.720;2023-07-20T04:05:16;97942.50;;;19.31;61.00
34979;BME280;21185;50.978;13.720;2023-07-20T04:10:18;97944.25;;;19.37;60.52
34979;BME280;21185;50.978;13.720;2023-07-20T04:15:20;97943.22;;;19.38;60.77
34979;BME280;21185;50.978;13.720;2023-07-20T04:20:22;97936.00;;;19.34;61.79
34979;BME280;21185;50.978;13.720;2023-07-20T04:25:24;97930.97;;;19.32;62.06
34979;BME280;21185;50.978;13.720;2023-07-20T04:30:27;97937.81;;;19.33;62.18
34979;BME280;21185;50.978;13.720;2023-07-20T04:35:46;97942.06;;;19.34;62.56
34979;BME280;21185;50.978;13.720;2023-07-20T04:40:51;97937.38;;;19.36;62.33
34979;BME280;21185;50.978;13.720;2023-07-20T04:45:53;97953.16;;;19.36;62.78
34979;BME280;21185;50.978;13.720;2023-07-20T04:50:55;97940.44;;;19.33;63.18
34979;BME280;21185;50.978;13.720;2023-07-20T04:55:59;97944.56;;;19.29;63.81
34979;BME280;21185;50.978;13.720;2023-07-20T05:01:01;97956.47;;;19.32;63.88
34979;BME280;21185;50.978;13.720;2023-07-20T05:06:04;97962.19;;;19.40;63.81
34979;BME280;21185;50.978;13.720;2023-07-20T05:11:06;97950.19;;;19.45;64.71
34979;BME280;21185;50.978;13.720;2023-07-20T05:16:09;97945.50;;;19.47;64.89
34979;BME280;21185;50.978;13.720;2023-07-20T05:21:11;97947.47;;;19.51;65.19
34979;BME280;21185;50.978;13.720;2023-07-20T05:26:13;97949.91;;;19.53;65.42
34979;BME280;21185;50.978;13.720;2023-07-20T05:31:15;97954.69;;;19.56;65.55
34979;BME280;21185;50.978;13.720;2023-07-20T05:36:17;97953.56;;;19.63;65.63
34979;BME280;21185;50.978;13.720;2023-07-20T05:41:19;97942.47;;;19.73;65.88
34979;BME280;21185;50.978;13.720;2023-07-20T05:46:20;97945.56;;;19.70;66.29
34979;BME280;21185;50.978;13.720;2023-07-20T05:51:23;97962.50;;;19.74;66.39
34979;BME280;21185;50.978;13.720;2023-07-20T05:56:25;97964.44;;;19.79;65.96
34979;BME280;21185;50.978;13.720;2023-07-20T06:01:27;97974.19;;;19.78;66.06
34979;BME280;21185;50.978;13.720;2023-07-20T06:06:30;97974.75;;;19.80;66.04
34979;BME280;21185;50.978;13.720;2023-07-20T06:11:32;97974.19;;;19.78;65.97
34979;BME280;21185;50.978;13.720;2023-07-20T06:16:33;97967.44;;;19.82;66.08
34979;BME280;21185;50.978;13.720;2023-07-20T06:21:35;97971.78;;;19.88;65.90
34979;BME280;21185;50.978;13.720;2023-07-20T06:26:37;97985.06;;;19.93;66.28
34979;BME280;21185;50.978;13.720;2023-07-20T06:31:41;97992.03;;;19.88;66.26
34979;BME280;21185;50.978;13.720;2023-07-20T06:36:43;98007.84;;;19.76;66.28
34979;BME280;21185;50.978;13.720;2023-07-20T06:41:45;98010.53;;;19.58;66.95
34979;BME280;21185;50.978;13.720;2023-07-20T06:46:47;98002.13;;;19.37;67.22
34979;BME280;21185;50.978;13.720;2023-07-20T06:51:49;98003.25;;;19.30;67.01
34979;BME280;21185;50.978;13.720;2023-07-20T06:56:51;98000.84;;;19.28;67.12
34979;BME280;21185;50.978;13.720;2023-07-20T07:01:56;98007.13;;;19.27;66.98
34979;BME280;21185;50.978;13.720;2023-07-20T07:06:58;98013.53;;;19.31;66.89
34979;BME280;21185;50.978;13.720;2023-07-20T07:12:01;98012.88;;;19.36;67.40
34979;BME280;21185;50.978;13.720;2023-07-20T07:17:04;98019.06;;;19.41;67.58
34979;BME280;21185;50.978;13.720;2023-07-20T07:22:06;98016.09;;;19.50;67.52
34979;BME280;21185;50.978;13.720;2023-07-20T07:27:08;98016.72;;;19.52;68.00
34979;BME280;21185;50.978;13.720;2023-07-20T07:32:11;98019.25;;;19.58;67.89
34979;BME280;21185;50.978;13.720;2023-07-20T07:37:13;98025.78;;;19.67;68.03
34979;BME280;21185;50.978;13.720;2023-07-20T07:42:15;98027.28;;;19.75;67.77
34979;BME280;21185;50.978;13.720;2023-07-20T07:47:17;98024.19;;;19.78;68.10
34979;BME280;21185;50.978;13.720;2023-07-20T07:52:18;98022.84;;;19.99;68.02
34979;BME280;21185;50.978;13.720;2023-07-20T07:57:20;98007.16;;;20.16;68.27
34979;BME280;21185;50.978;13.720;2023-07-20T08:02:22;98007.97;;;20.40;67.77
34979;BME280;21185;50.978;13.720;2023-07-20T08:07:24;98012.66;;;20.49;67.58
34979;BME280;21185;50.978;13.720;2023-07-20T08:12:26;98025.50;;;20.46;67.50
34979;BME280;21185;50.978;13.720;2023-07-20T08:17:28;98027.78;;;20.30;67.00
34979;BME280;21185;50.978;13.720;2023-07-20T08:22:30;98037.75;;;20.40;67.22
34979;BME280;21185;50.978;13.720;2023-07-20T08:27:32;98033.75;;;20.49;66.80
34979;BME280;21185;50.978;13.720;2023-07-20T08:32:34;98030.31;;;20.49;67.04
34979;BME280;21185;50.978;13.720;2023-07-20T08:37:36;98024.44;;;20.58;66.69
34979;BME280;21185;50.978;13.720;2023-07-20T08:42:38;98026.75;;;20.83;66.33
34979;BME280;21185;50.978;13.720;2023-07-20T08:47:41;98022.59;;;20.99;65.80
34979;BME280;21185;50.978;13.720;2023-07-20T08:52:44;98021.78;;;20.98;65.14
34979;BME280;21185;50.978;13.720;2023-07-20T08:57:46;98035.00;;;20.87;64.99
34979;BME280;21185;50.978;13.720;2023-07-20T09:02:49;98036.50;;;20.83;64.81
34979;BME280;21185;50.978;13.720;2023-07-20T09:07:52;98023.72;;;21.03;64.46
34979;BME280;21185;50.978;13.720;2023-07-20T09:12:54;98034.63;;;21.35;63.70
34979;BME280;21185;50.978;13.720;2023-07-20T09:18:00;98037.69;;;21.44;63.33
34979;BME280;21185;50.978;13.720;2023-07-20T09:23:05;98032.03;;;21.52;63.16
34979;BME280;21185;50.978;13.720;2023-07-20T09:28:08;98036.13;;;21.31;62.41
34979;BME280;21185;50.978;13.720;2023-07-20T09:33:18;98026.53;;;21.25;62.33
34979;BME280;21185;50.978;13.720;2023-07-20T09:38:23;98026.28;;;21.26;62.21
34979;BME280;21185;50.978;13.720;2023-07-20T09:43:25;98026.66;;;21.18;62.34
34979;BME280;21185;50.978;13.720;2023-07-20T09:48:30;98022.41;;;21.46;62.38
34979;BME280;21185;50.978;13.720;2023-07-20T09:53:34;98018.09;;;21.56;62.32
34979;BME280;21185;50.978;13.720;2023-07-20T09:58:37;98033.78;;;21.46;62.42
34979;BME280;21185;50.978;13.720;2023-07-20T10:03:40;98039.84;;;21.47;62.37
34979;BME280;21185;50.978;13.720;2023-07-20T10:08:43;98036.19;;;21.48;61.60
34979;BME280;21185;50.978;13.720;2023-07-20T10:13:51;98028.25;;;21.48;60.93
34979;BME280;21185;50.978;13.720;2023-07-20T10:23:59;98031.56;;;21.88;59.00
34979;BME280;21185;50.978;13.720;2023-07-20T10:29:01;98022.69;;;21.94;58.74
34979;BME280;21185;50.978;13.720;2023-07-20T10:34:05;98024.06;;;22.14;58.78
34979;BME280;21185;50.978;13.720;2023-07-20T10:39:07;98015.09;;;22.15;58.97
34979;BME280;21185;50.978;13.720;2023-07-20T10:44:23;98014.22;;;22.09;58.37
34979;BME280;21185;50.978;13.720;2023-07-20T10:49:25;98016.47;;;22.39;58.81
34979;BME280;21185;50.978;13.720;2023-07-20T11:04:40;98000.34;;;22.79;59.39
34979;BME280;21185;50.978;13.720;2023-07-20T11:09:42;98004.19;;;22.72;60.04
34979;BME280;21185;50.978;13.720;2023-07-20T11:14:54;98024.47;;;22.44;60.64
34979;BME280;21185;50.978;13.720;2023-07-20T11:19:57;98041.44;;;22.10;61.43
34979;BME280;21185;50.978;13.720;2023-07-20T11:25:02;98026.75;;;21.85;61.65
34979;BME280;21185;50.978;13.720;2023-07-20T11:30:05;98014.50;;;21.79;61.55
34979;BME280;21185;50.978;13.720;2023-07-20T11:35:16;98012.44;;;21.81;61.86
34979;BME280;21185;50.978;13.720;2023-07-20T11:40:18;98024.53;;;22.11;61.29
34979;BME280;21185;50.978;13.720;2023-07-20T11:45:22;98022.91;;;22.26;61.29
34979;BME280;21185;50.978;13.720;2023-07-20T11:50:24;98020.66;;;22.35;61.04
34979;BME280;21185;50.978;13.720;2023-07-20T11:55:25;98012.16;;;22.33;61.29
34979;BME280;21185;50.978;13.720;2023-07-20T12:00:27;98011.72;;;22.19;61.69
34979;BME280;21185;50.978;13.720;2023-07-20T12:05:29;98020.28;;;22.10;61.95
34979;BME280;21185;50.978;13.720;2023-07-20T12:10:31;98025.16;;;22.01;61.91
34979;BME280;21185;50.978;13.720;2023-07-20T12:15:33;98025.31;;;21.94;62.11
34979;BME280;21185;50.978;13.720;2023-07-20T12:20:35;98026.91;;;21.95;62.15
34979;BME280;21185;50.978;13.720;2023-07-20T12:25:45;98028.19;;;21.93;62.00
34979;BME280;21185;50.978;13.720;2023-07-20T12:30:47;98038.84;;;21.81;62.15
34979;BME280;21185;50.978;13.720;2023-07-20T12:36:00;98063.31;;;21.60;62.71
34979;BME280;21185;50.978;13.720;2023-07-20T12:41:03;98060.31;;;21.40;62.85
34979;BME280;21185;50.978;13.720;2023-07-20T12:46:05;98060.38;;;21.28;62.85
34979;BME280;21185;50.978;13.720;2023-07-20T12:51:07;98089.63;;;21.15;63.34
34979;BME280;21185;50.978;13.720;2023-07-20T12:56:09;98096.56;;;20.92;63.90
34979;BME280;21185;50.978;13.720;2023-07-20T13:01:13;98087.81;;;20.63;64.56
34979;BME280;21185;50.978;13.720;2023-07-20T13:06:15;98079.94;;;20.40;65.18
34979;BME280;21185;50.978;13.720;2023-07-20T13:11:20;98076.22;;;20.29;65.57
34979;BME280;21185;50.978;13.720;2023-07-20T13:16:24;98070.63;;;20.26;65.51
34979;BME280;21185;50.978;13.720;2023-07-20T13:21:26;98047.13;;;20.36;65.59
34979;BME280;21185;50.978;13.720;2023-07-20T13:26:28;98041.09;;;20.47;65.52
34979;BME280;21185;50.978;13.720;2023-07-20T13:31:30;98039.59;;;20.51;65.32
34979;BME280;21185;50.978;13.720;2023-07-20T13:36:35;98034.66;;;20.55;65.06
34979;BME280;21185;50.978;13.720;2023-07-20T13:41:37;98050.00;;;20.58;64.86
34979;BME280;21185;50.978;13.720;2023-07-20T13:46:39;98043.00;;;20.63;64.99
34979;BME280;21185;50.978;13.720;2023-07-20T13:51:44;98046.66;;;20.62;64.66
34979;BME280;21185;50.978;13.720;2023-07-20T13:56:45;98049.78;;;20.59;64.68
34979;BME280;21185;50.978;13.720;2023-07-20T14:01:47;98051.94;;;20.62;64.87
34979;BME280;21185;50.978;13.720;2023-07-20T14:06:49;98055.63;;;20.61;64.74
34979;BME280;21185;50.978;13.720;2023-07-20T14:11:51;98060.88;;;20.61;64.54
34979;BME280;21185;50.978;13.720;2023-07-20T14:16:56;98054.47;;;20.57;64.26
34979;BME280;21185;50.978;13.720;2023-07-20T14:21:58;98060.78;;;20.56;64.56
34979;BME280;21185;50.978;13.720;2023-07-20T14:27:01;98066.72;;;20.63;64.20
34979;BME280;21185;50.978;13.720;2023-07-20T14:32:03;98067.28;;;20.77;64.13
34979;BME280;21185;50.978;13.720;2023-07-20T14:37:07;98074.78;;;20.97;64.25
34979;BME280;21185;50.978;13.720;2023-07-20T14:42:09;98079.22;;;21.08;63.85
34979;BME280;21185;50.978;13.720;2023-07-20T14:47:11;98071.50;;;21.18;64.11
34979;BME280;21185;50.978;13.720;2023-07-20T14:52:16;98065.19;;;21.19;63.93
34979;BME280;21185;50.978;13.720;2023-07-20T14:57:19;98046.38;;;21.27;64.14
34979;BME280;21185;50.978;13.720;2023-07-20T15:02:22;98045.25;;;21.23;64.12
34979;BME280;21185;50.978;13.720;2023-07-20T15:07:24;98030.63;;;21.32;64.03
34979;BME280;21185;50.978;13.720;2023-07-20T15:12:26;98040.31;;;21.44;63.87
34979;BME280;21185;50.978;13.720;2023-07-20T15:17:28;98041.94;;;21.45;62.70
34979;BME280;21185;50.978;13.720;2023-07-20T15:22:30;98044.81;;;21.43;61.88
34979;BME280;21185;50.978;13.720;2023-07-20T15:27:33;98036.50;;;21.51;61.68
34979;BME280;21185;50.978;13.720;2023-07-20T15:32:34;98039.22;;;21.56;61.08
34979;BME280;21185;50.978;13.720;2023-07-20T15:37:39;98032.34;;;21.55;60.88
34979;BME280;21185;50.978;13.720;2023-07-20T15:42:41;98024.81;;;21.47;60.54
34979;BME280;21185;50.978;13.720;2023-07-20T15:47:43;98031.13;;;21.46;61.00
34979;BME280;21185;50.978;13.720;2023-07-20T15:52:45;98029.28;;;21.47;60.99
34979;BME280;21185;50.978;13.720;2023-07-20T15:57:47;98033.16;;;21.56;61.00
34979;BME280;21185;50.978;13.720;2023-07-20T16:02:50;98034.75;;;21.57;60.25
34979;BME280;21185;50.978;13.720;2023-07-20T16:07:51;98037.63;;;21.55;60.18
34979;BME280;21185;50.978;13.720;2023-07-20T16:12:53;98030.59;;;21.61;59.85
34979;BME280;21185;50.978;13.720;2023-07-20T16:17:55;98038.75;;;21.59;59.78
34979;BME280;21185;50.978;13.720;2023-07-20T16:22:57;98036.03;;;21.54;59.48
34979;BME280;21185;50.978;13.720;2023-07-20T16:27:59;98025.78;;;21.58;59.62
34979;BME280;21185;50.978;13.720;2023-07-20T16:33:01;98030.50;;;21.56;59.00
34979;BME280;21185;50.978;13.720;2023-07-20T16:38:04;98030.19;;;21.52;57.45
34979;BME280;21185;50.978;13.720;2023-07-20T16:43:09;98027.69;;;21.46;56.69
34979;BME280;21185;50.978;13.720;2023-07-20T16:48:12;98028.66;;;21.40;56.57
34979;BME280;21185;50.978;13.720;2023-07-20T16:53:16;98017.44;;;21.32;56.31
34979;BME280;21185;50.978;13.720;2023-07-20T16:58:18;98020.53;;;21.29;56.57
34979;BME280;21185;50.978;13.720;2023-07-20T17:03:20;98011.03;;;21.28;56.65
34979;BME280;21185;50.978;13.720;2023-07-20T17:08:22;98018.84;;;21.23;57.01
34979;BME280;21185;50.978;13.720;2023-07-20T17:13:24;98016.88;;;21.19;56.72
34979;BME280;21185;50.978;13.720;2023-07-20T17:18:26;98017.59;;;21.14;56.55
34979;BME280;21185;50.978;13.720;2023-07-20T17:23:28;98014.06;;;21.09;56.08
34979;BME280;21185;50.978;13.720;2023-07-20T17:28:34;98013.97;;;21.03;55.75
34979;BME280;21185;50.978;13.720;2023-07-20T17:33:39;98012.03;;;20.99;55.29
34979;BME280;21185;50.978;13.720;2023-07-20T17:38:41;98012.75;;;20.94;54.75
34979;BME280;21185;50.978;13.720;2023-07-20T17:43:43;98005.31;;;20.91;55.30
34979;BME280;21185;50.978;13.720;2023-07-20T17:48:45;98017.34;;;20.87;55.43
34979;BME280;21185;50.978;13.720;2023-07-20T17:53:48;98015.19;;;20.84;55.20
34979;BME280;21185;50.978;13.720;2023-07-20T17:58:50;98001.66;;;20.81;55.29
34979;BME280;21185;50.978;13.720;2023-07-20T18:03:51;98005.91;;;20.82;55.83
34979;BME280;21185;50.978;13.720;2023-07-20T18:08:53;98002.72;;;20.80;56.00
34979;BME280;21185;50.978;13.720;2023-07-20T18:13:55;97997.91;;;20.77;55.99
34979;BME280;21185;50.978;13.720;2023-07-20T18:18:59;97997.81;;;20.72;56.04
34979;BME280;21185;50.978;13.720;2023-07-20T18:24:00;97993.25;;;20.67;56.19
34979;BME280;21185;50.978;13.720;2023-07-20T18:29:02;97996.59;;;20.62;56.63
34979;BME280;21185;50.978;13.720;2023-07-20T18:34:04;97997.53;;;20.56;56.72
34979;BME280;21185;50.978;13.720;2023-07-20T18:39:06;97987.91;;;20.50;57.06
34979;BME280;21185;50.978;13.720;2023-07-20T18:44:08;98000.41;;;20.43;57.01
34979;BME280;21185;50.978;13.720;2023-07-20T18:49:09;98003.13;;;20.36;56.97
34979;BME280;21185;50.978;13.720;2023-07-20T18:54:11;98001.66;;;20.29;57.10
34979;BME280;21185;50.978;13.720;2023-07-20T18:59:13;98011.75;;;20.20;57.39
34979;BME280;21185;50.978;13.720;2023-07-20T19:04:16;98008.66;;;20.12;57.45
34979;BME280;21185;50.978;13.720;2023-07-20T19:09:18;98013.47;;;20.03;57.57
34979;BME280;21185;50.978;13.720;2023-07-20T19:14:20;98015.41;;;19.96;57.77
34979;BME280;21185;50.978;13.720;2023-07-20T19:19:22;98025.03;;;19.90;57.45
34979;BME280;21185;50.978;13.720;2023-07-20T19:24:24;98036.47;;;19.84;57.59
34979;BME280;21185;50.978;13.720;2023-07-20T19:29:26;98039.78;;;19.80;58.03
34979;BME280;21185;50.978;13.720;2023-07-20T19:34:27;98045.50;;;19.77;57.60
34979;BME280;21185;50.978;13.720;2023-07-20T19:39:29;98037.25;;;19.73;57.79
34979;BME280;21185;50.978;13.720;2023-07-20T19:44:32;98048.44;;;19.68;57.54
34979;BME280;21185;50.978;13.720;2023-07-20T19:49:33;98041.22;;;19.64;57.90
34979;BME280;21185;50.978;13.720;2023-07-20T19:54:35;98040.06;;;19.60;57.52
34979;BME280;21185;50.978;13.720;2023-07-20T19:59:37;98049.44;;;19.56;57.62
34979;BME280;21185;50.978;13.720;2023-07-20T20:04:39;98051.91;;;19.51;57.83
34979;BME280;21185;50.978;13.720;2023-07-20T20:09:45;98059.91;;;19.44;57.88
34979;BME280;21185;50.978;13.720;2023-07-20T20:14:46;98061.16;;;19.41;57.75
34979;BME280;21185;50.978;13.720;2023-07-20T20:19:48;98060.00;;;19.37;57.99
34979;BME280;21185;50.978;13.720;2023-07-20T20:24:50;98059.41;;;19.35;57.81
34979;BME280;21185;50.978;13.720;2023-07-20T20:29:53;98064.31;;;19.32;57.66
34979;BME280;21185;50.978;13.720;2023-07-20T20:34:56;98072.88;;;19.27;57.77
34979;BME280;21185;50.978;13.720;2023-07-20T20:39:59;98077.78;;;19.24;57.95
34979;BME280;21185;50.978;13.720;2023-07-20T20:45:01;98072.16;;;19.20;57.79
34979;BME280;21185;50.978;13.720;2023-07-20T20:50:02;98067.34;;;19.17;57.86
34979;BME280;21185;50.978;13.720;2023-07-20T20:55:04;98072.25;;;19.14;58.11
34979;BME280;21185;50.978;13.720;2023-07-20T21:00:06;98066.41;;;19.12;58.01
34979;BME280;21185;50.978;13.720;2023-07-20T21:05:09;98074.97;;;19.07;58.05
34979;BME280;21185;50.978;13.720;2023-07-20T21:10:11;98071.97;;;19.03;58.07
34979;BME280;21185;50.978;13.720;2023-07-20T21:15:13;98066.34;;;19.00;58.29
34979;BME280;21185;50.978;13.720;2023-07-20T21:20:15;98075.69;;;18.96;58.00
34979;BME280;21185;50.978;13.720;2023-07-20T21:25:17;98070.88;;;18.93;58.01
34979;BME280;21185;50.978;13.720;2023-07-20T21:30:18;98071.31;;;18.90;58.14
34979;BME280;21185;50.978;13.720;2023-07-20T21:35:20;98073.81;;;18.85;58.11
34979;BME280;21185;50.978;13.720;2023-07-20T21:40:22;98076.28;;;18.80;58.43
34979;BME280;21185;50.978;13.720;2023-07-20T21:45:24;98082.00;;;18.76;58.21
34979;BME280;21185;50.978;13.720;2023-07-20T21:50:27;98078.78;;;18.74;58.30
34979;BME280;21185;50.978;13.720;2023-07-20T21:55:29;98075.56;;;18.72;58.41
34979;BME280;21185;50.978;13.720;2023-07-20T22:00:31;98079.22;;;18.71;58.10
34979;BME280;21185;50.978;13.720;2023-07-20T22:05:34;98075.41;;;18.67;58.39
34979;BME280;21185;50.978;13.720;2023-07-20T22:10:36;98072.78;;;18.67;58.25
34979;BME280;21185;50.978;13.720;2023-07-20T22:15:38;98064.31;;;18.65;58.42
34979;BME280;21185;50.978;13.720;2023-07-20T22:20:39;98069.78;;;18.64;58.16
34979;BME280;21185;50.978;13.720;2023-07-20T22:25:41;98061.91;;;18.64;58.20
34979;BME280;21185;50.978;13.720;2023-07-20T22:30:43;98058.47;;;18.63;58.32
34979;BME280;21185;50.978;13.720;2023-07-20T22:35:46;98061.91;;;18.64;58.39
34979;BME280;21185;50.978;13.720;2023-07-20T22:40:47;98051.41;;;18.64;58.41
34979;BME280;21185;50.978;13.720;2023-07-20T22:45:50;98052.78;;;18.66;58.31
34979;BME280;21185;50.978;13.720;2023-07-20T22:50:52;98051.53;;;18.69;58.35
34979;BME280;21185;50.978;13.720;2023-07-20T22:55:54;98047.66;;;18.71;58.31
34979;BME280;21185;50.978;13.720;2023-07-20T23:00:57;98048.69;;;18.70;58.19
34979;BME280;21185;50.978;13.720;2023-07-20T23:05:59;98043.66;;;18.69;58.21
34979;BME280;21185;50.978;13.720;2023-07-20T23:11:00;98044.47;;;18.69;58.38
34979;BME280;21185;50.978;13.720;2023-07-20T23:16:03;98046.28;;;18.69;58.36
34979;BME280;21185;50.978;13.720;2023-07-20T23:21:05;98046.50;;;18.67;58.45
34979;BME280;21185;50.978;13.720;2023-07-20T23:26:09;98042.72;;;18.63;58.58
34979;BME280;21185;50.978;13.720;2023-07-20T23:31:13;98033.44;;;18.61;58.22
34979;BME280;21185;50.978;13.720;2023-07-20T23:36:15;98029.19;;;18.60;58.30
34979;BME280;21185;50.978;13.720;2023-07-20T23:41:17;98035.84;;;18.62;58.13
34979;BME280;21185;50.978;13.720;2023-07-20T23:46:19;98026.94;;;18.63;58.27
34979;BME280;21185;50.978;13.720;2023-07-20T23:51:25;98025.91;;;18.64;58.29
34979;BME280;21185;50.978;13.720;2023-07-20T23:56:27;98031.19;;;18.64;58.17
